createdAt,value
2023-03-21T00:01:06.638Z,76459.50
2023-03-21T00:03:54.171Z,76453.38
2023-03-21T00:06:40.681Z,76453.38
2023-03-21T00:09:27.393Z,76449.28
2023-03-21T00:11:55.121Z,76451.34
2023-03-21T00:14:41.538Z,76447.25
2023-03-21T00:17:10.875Z,76443.19
2023-03-21T00:19:41.296Z,76443.19
2023-03-21T00:22:09.364Z,76437.06
2023-03-21T00:24:55.960Z,76435.03
2023-03-21T00:28:01.182Z,76437.06
2023-03-21T00:30:49.715Z,76441.16
2023-03-21T00:33:22.816Z,76449.28
2023-03-21T00:36:12.973Z,76445.22
2023-03-21T00:39:00.830Z,76445.22
2023-03-21T00:41:42.043Z,76449.28
2023-03-21T00:44:13.772Z,76449.28
2023-03-21T00:47:07.516Z,76453.38
2023-03-21T00:49:54.433Z,76453.38
2023-03-21T00:52:42.573Z,76453.38
2023-03-21T00:55:29.211Z,76447.25
2023-03-21T00:58:15.775Z,76449.28
2023-03-21T01:01:02.709Z,76455.41
2023-03-21T01:03:30.442Z,76457.44
2023-03-21T01:06:19.300Z,76455.41
2023-03-21T01:09:07.919Z,76455.41
2023-03-21T01:11:55.592Z,76453.38
2023-03-21T01:14:24.346Z,76453.38
2023-03-21T01:16:53.924Z,76455.41
2023-03-21T01:19:51.177Z,76449.28
2023-03-21T01:22:57.397Z,76449.28
2023-03-21T01:25:45.330Z,76451.34
2023-03-21T01:28:13.424Z,76449.28
2023-03-21T01:31:02.006Z,76445.22
2023-03-21T01:33:30.267Z,76443.19
2023-03-21T01:36:22.272Z,76443.19
2023-03-21T01:38:51.048Z,76443.19
2023-03-21T01:41:33.582Z,76437.06
2023-03-21T01:44:26.871Z,76439.09
2023-03-21T01:47:31.856Z,76441.16
2023-03-21T01:50:22.250Z,76441.16
2023-03-21T01:53:08.833Z,76449.28
2023-03-21T01:55:38.030Z,76453.38
2023-03-21T01:58:09.351Z,76453.38
2023-03-21T02:00:38.312Z,76449.28
2023-03-21T02:03:35.259Z,76449.28
2023-03-21T02:06:09.439Z,76445.22
2023-03-21T02:08:55.960Z,76453.38
2023-03-21T02:11:23.813Z,76465.63
2023-03-21T02:14:01.131Z,76481.91
2023-03-21T02:16:42.146Z,76477.84
2023-03-21T02:20:42.176Z,76492.13
2023-03-21T02:23:55.540Z,76490.06
2023-03-21T02:27:03.930Z,76486.00
2023-03-21T02:30:29.644Z,76475.81
2023-03-21T02:33:32.641Z,76473.75
2023-03-21T02:36:16.043Z,76469.69
2023-03-21T02:38:51.732Z,76465.63
2023-03-21T02:41:27.416Z,76459.50
2023-03-21T02:44:03.909Z,76453.38
2023-03-21T02:46:42.914Z,76453.38
2023-03-21T02:49:21.654Z,76449.28
2023-03-21T02:52:17.038Z,76445.22
2023-03-21T02:55:13.934Z,76441.16
2023-03-21T02:57:44.491Z,76439.09
2023-03-21T03:00:17.973Z,76441.16
2023-03-21T03:03:09.917Z,76437.06
2023-03-21T03:05:43.499Z,76435.03
2023-03-21T03:08:37.589Z,76420.75
2023-03-21T03:11:30.663Z,76416.69
2023-03-21T03:14:49.930Z,76410.56
2023-03-21T03:17:50.781Z,76402.41
2023-03-21T03:20:37.331Z,76392.22
2023-03-21T03:23:46.037Z,76394.25
2023-03-21T03:26:18.573Z,76396.28
2023-03-21T03:29:08.994Z,76398.31
2023-03-21T03:31:42.215Z,76404.44
2023-03-21T03:34:14.052Z,76408.53
2023-03-21T03:36:47.647Z,76412.59
2023-03-21T03:39:17.127Z,76414.63
2023-03-21T03:42:29.188Z,76414.63
2023-03-21T03:45:17.729Z,76420.75
2023-03-21T03:48:08.545Z,76422.78
2023-03-21T03:50:41.209Z,76420.75
2023-03-21T03:53:18.949Z,76418.72
2023-03-21T03:56:09.759Z,76420.75
2023-03-21T03:58:57.778Z,76424.84
2023-03-21T04:01:26.832Z,76428.91
2023-03-21T04:04:06.994Z,76437.06
2023-03-21T04:06:41.440Z,76435.03
2023-03-21T04:09:46.539Z,76437.06
2023-03-21T04:12:33.305Z,76432.97
2023-03-21T04:15:09.792Z,76430.94
2023-03-21T04:17:58.195Z,76426.88
2023-03-21T04:20:36.133Z,76424.84
2023-03-21T04:23:42.510Z,76422.78
2023-03-21T04:26:47.905Z,76422.78
2023-03-21T04:29:15.692Z,76420.75
2023-03-21T04:31:43.427Z,76420.75
2023-03-21T04:34:12.973Z,76422.78
2023-03-21T04:36:59.258Z,76416.69
2023-03-21T04:39:26.980Z,76416.69
2023-03-21T04:41:54.808Z,76416.69
2023-03-21T04:44:41.210Z,76408.53
2023-03-21T04:47:27.970Z,76404.44
2023-03-21T04:49:57.982Z,76394.25
2023-03-21T04:52:26.016Z,76388.13
2023-03-21T04:55:32.418Z,76382.00
2023-03-21T04:58:20.230Z,76386.09
2023-03-21T05:00:48.160Z,76384.06
2023-03-21T05:03:53.503Z,76379.97
2023-03-21T05:06:23.753Z,76379.97
2023-03-21T05:09:10.331Z,76379.97
2023-03-21T05:11:56.562Z,76384.06
2023-03-21T05:14:26.247Z,76379.97
2023-03-21T05:17:15.400Z,76375.91
2023-03-21T05:19:43.134Z,76373.84
2023-03-21T05:22:14.282Z,76363.66
2023-03-21T05:25:00.510Z,76353.47
2023-03-21T05:27:37.095Z,76347.34
2023-03-21T05:30:08.316Z,76345.31
2023-03-21T05:32:54.585Z,76339.19
2023-03-21T05:35:41.347Z,76335.13
2023-03-21T05:38:10.495Z,76343.28
2023-03-21T05:40:57.473Z,76351.44
2023-03-21T05:43:43.918Z,76347.34
2023-03-21T05:46:30.188Z,76351.44
2023-03-21T05:48:58.033Z,76343.28
2023-03-21T05:51:45.311Z,76337.16
2023-03-21T05:54:16.705Z,76331.03
2023-03-21T05:56:44.507Z,76318.81
2023-03-21T05:59:30.912Z,76306.56
2023-03-21T06:01:58.707Z,76298.41
2023-03-21T06:04:27.024Z,76273.94
2023-03-21T06:06:55.014Z,76253.56
2023-03-21T06:09:24.628Z,76243.38
2023-03-21T06:11:54.655Z,76229.09
2023-03-21T06:14:41.128Z,76220.94
2023-03-21T06:17:27.264Z,76216.84
2023-03-21T06:20:15.372Z,76208.69
2023-03-21T06:23:01.720Z,76208.69
2023-03-21T06:25:50.401Z,76216.84
2023-03-21T06:28:18.198Z,76222.97
2023-03-21T06:31:04.617Z,76225.00
2023-03-21T06:33:51.636Z,76225.00
2023-03-21T06:36:57.175Z,76212.78
2023-03-21T06:39:25.870Z,76216.84
2023-03-21T06:41:54.987Z,76208.69
2023-03-21T06:44:41.536Z,76210.75
2023-03-21T06:47:28.041Z,76204.63
2023-03-21T06:49:55.798Z,76204.63
2023-03-21T06:52:23.602Z,76196.47
2023-03-21T06:54:51.990Z,76190.34
2023-03-21T06:57:21.970Z,76172.00
2023-03-21T07:00:10.592Z,76159.78
2023-03-21T07:02:56.635Z,76131.22
2023-03-21T07:05:24.530Z,76106.75
2023-03-21T07:08:11.433Z,76100.66
2023-03-21T07:10:40.313Z,76078.22
2023-03-21T07:13:27.756Z,76078.22
2023-03-21T07:15:55.650Z,76039.47
2023-03-21T07:18:23.406Z,76033.38
2023-03-21T07:20:52.007Z,76041.53
2023-03-21T07:23:38.463Z,76045.59
2023-03-21T07:26:06.721Z,76041.53
2023-03-21T07:28:54.743Z,76049.69
2023-03-21T07:31:59.975Z,76057.84
2023-03-21T07:34:31.623Z,76029.28
2023-03-21T07:37:18.013Z,76015.03
2023-03-21T07:40:10.027Z,76004.81
2023-03-21T07:42:37.867Z,76004.81
2023-03-21T07:45:08.358Z,76008.91
2023-03-21T07:47:37.081Z,76008.91
2023-03-21T07:50:05.530Z,75992.59
2023-03-21T07:53:10.403Z,75966.09
2023-03-21T07:55:39.674Z,75931.44
2023-03-21T07:58:27.213Z,75917.16
2023-03-21T08:00:56.751Z,75923.28
2023-03-21T08:03:43.434Z,75915.13
2023-03-21T08:06:11.500Z,75906.97
2023-03-21T08:08:57.618Z,75913.09
2023-03-21T08:11:43.794Z,75878.44
2023-03-21T08:14:11.594Z,75841.72
2023-03-21T08:16:40.684Z,75813.19
2023-03-21T08:19:27.835Z,75780.56
2023-03-21T08:22:32.714Z,75766.31
2023-03-21T08:25:22.055Z,75731.66
2023-03-21T08:27:50.767Z,75766.31
2023-03-21T08:30:38.981Z,75719.41
2023-03-21T08:33:27.461Z,75719.41
2023-03-21T08:35:55.370Z,75735.72
2023-03-21T08:38:41.532Z,75735.72
2023-03-21T08:41:46.689Z,75760.19
2023-03-21T08:44:32.893Z,75764.25
2023-03-21T08:47:01.553Z,75745.91
2023-03-21T08:49:49.756Z,75727.56
2023-03-21T08:52:37.213Z,75723.50
2023-03-21T08:55:05.520Z,75717.38
2023-03-21T08:57:51.709Z,75694.94
2023-03-21T09:00:56.822Z,75703.09
2023-03-21T09:03:24.604Z,75703.09
2023-03-21T09:06:14.257Z,75629.72
2023-03-21T09:08:43.374Z,75588.94
2023-03-21T09:11:12.373Z,75552.25
2023-03-21T09:13:40.127Z,75564.47
2023-03-21T09:16:26.491Z,75580.78
2023-03-21T09:18:55.839Z,75568.56
2023-03-21T09:21:25.159Z,75535.94
2023-03-21T09:24:30.917Z,75482.94
2023-03-21T09:26:59.569Z,75482.94
2023-03-21T09:29:29.177Z,75466.63
2023-03-21T09:31:57.659Z,75485.00
2023-03-21T09:34:26.518Z,75513.53
2023-03-21T09:36:57.274Z,75552.25
2023-03-21T09:39:26.310Z,75495.19
2023-03-21T09:42:17.665Z,75436.06
2023-03-21T09:44:57.594Z,75395.28
2023-03-21T09:47:53.263Z,75405.50
2023-03-21T09:50:59.226Z,75401.41
2023-03-21T09:53:33.741Z,75381.03
2023-03-21T09:56:03.907Z,75397.34
2023-03-21T09:58:36.609Z,75434.03
2023-03-21T10:01:28.424Z,75429.94
2023-03-21T10:04:18.864Z,75448.28
2023-03-21T10:06:54.944Z,75470.72
2023-03-21T10:09:43.201Z,75397.34
2023-03-21T10:12:20.838Z,75295.41
2023-03-21T10:14:51.993Z,75226.13
2023-03-21T10:17:27.993Z,75148.66
2023-03-21T10:20:12.030Z,75144.59
2023-03-21T10:22:40.251Z,75175.16
2023-03-21T10:25:33.638Z,75205.72
2023-03-21T10:28:02.904Z,75205.72
2023-03-21T10:30:42.246Z,75201.66
2023-03-21T10:33:15.733Z,75268.91
2023-03-21T10:35:47.645Z,75279.09
2023-03-21T10:38:18.785Z,75270.97
2023-03-21T10:40:48.008Z,75287.25
2023-03-21T10:43:34.250Z,75234.28
2023-03-21T10:46:09.136Z,75217.97
2023-03-21T10:48:38.642Z,75191.47
2023-03-21T10:51:09.390Z,75162.94
2023-03-21T10:53:40.871Z,75187.38
2023-03-21T10:56:12.844Z,75230.19
2023-03-21T10:58:45.422Z,75195.53
2023-03-21T11:01:18.642Z,75156.81
2023-03-21T11:03:48.254Z,75107.91
2023-03-21T11:06:27.697Z,75103.81
2023-03-21T11:08:57.779Z,75083.44
2023-03-21T11:11:29.368Z,75052.88
2023-03-21T11:14:00.518Z,75063.06
2023-03-21T11:16:34.657Z,75054.91
2023-03-21T11:19:04.128Z,75083.44
2023-03-21T11:21:37.819Z,75116.06
2023-03-21T11:24:07.589Z,75120.13
2023-03-21T11:26:38.750Z,75150.69
2023-03-21T11:29:25.026Z,75101.78
2023-03-21T11:31:53.201Z,75138.47
2023-03-21T11:34:27.561Z,75197.56
2023-03-21T11:37:00.429Z,75207.78
2023-03-21T11:39:37.526Z,75224.06
2023-03-21T11:42:07.862Z,75201.66
2023-03-21T11:44:44.487Z,75209.81
2023-03-21T11:47:12.619Z,75146.63
2023-03-21T11:49:40.419Z,75099.75
2023-03-21T11:52:21.707Z,75111.97
2023-03-21T11:55:08.953Z,75093.63
2023-03-21T11:57:45.020Z,75083.44
2023-03-21T12:00:20.826Z,75056.94
2023-03-21T12:03:10.653Z,75026.38
2023-03-21T12:05:44.088Z,74948.91
2023-03-21T12:08:26.995Z,74881.66
2023-03-21T12:11:03.246Z,74853.13
2023-03-21T12:13:42.950Z,74822.56
2023-03-21T12:16:23.815Z,74834.78
2023-03-21T12:19:13.911Z,74844.97
2023-03-21T12:21:55.229Z,74834.78
2023-03-21T12:24:26.398Z,74849.06
2023-03-21T12:27:01.032Z,74832.75
2023-03-21T12:29:46.398Z,74802.19
2023-03-21T12:32:24.719Z,74747.16
2023-03-21T12:35:10.540Z,74692.13
2023-03-21T12:37:45.992Z,74720.66
2023-03-21T12:40:23.595Z,74777.72
2023-03-21T12:43:12.928Z,74763.47
2023-03-21T12:45:47.643Z,74771.59
2023-03-21T12:48:23.606Z,74765.50
2023-03-21T12:50:53.571Z,74847.00
2023-03-21T12:53:36.027Z,74908.16
2023-03-21T12:56:08.644Z,74969.31
2023-03-21T12:58:45.290Z,75008.03
2023-03-21T13:01:17.585Z,74997.84
2023-03-21T13:03:51.057Z,74936.69
2023-03-21T13:06:21.862Z,74834.78
2023-03-21T13:08:54.176Z,74796.06
2023-03-21T13:11:25.847Z,74747.16
2023-03-21T13:14:00.596Z,74757.34
2023-03-21T13:16:34.141Z,74751.22
2023-03-21T13:19:11.726Z,74704.34
2023-03-21T13:21:45.791Z,74698.25
2023-03-21T13:24:26.066Z,74700.28
2023-03-21T13:27:02.438Z,74692.13
2023-03-21T13:29:33.181Z,74671.75
2023-03-21T13:32:10.655Z,74659.53
2023-03-21T13:34:41.284Z,74714.53
2023-03-21T13:37:17.412Z,74681.94
2023-03-21T13:39:47.304Z,74710.47
2023-03-21T13:42:24.249Z,74769.56
2023-03-21T13:44:58.401Z,74814.41
2023-03-21T13:47:54.404Z,74826.63
2023-03-21T13:50:28.709Z,74826.63
2023-03-21T13:53:21.359Z,74838.88
2023-03-21T13:56:00.912Z,74853.13
2023-03-21T13:58:38.423Z,74891.84
2023-03-21T14:01:26.169Z,74859.25
2023-03-21T14:04:01.303Z,74822.56
2023-03-21T14:06:52.445Z,74861.28
2023-03-21T14:09:25.599Z,74895.94
2023-03-21T14:11:56.667Z,74891.84
2023-03-21T14:14:33.663Z,74891.84
2023-03-21T14:17:01.478Z,74859.25
2023-03-21T14:19:32.913Z,74847.00
2023-03-21T14:22:00.743Z,74855.16
2023-03-21T14:24:28.536Z,74871.47
2023-03-21T14:26:56.838Z,74885.75
2023-03-21T14:29:28.575Z,74891.84
2023-03-21T14:31:57.555Z,74895.94
2023-03-21T14:34:28.050Z,74912.22
2023-03-21T14:36:58.915Z,74904.09
2023-03-21T14:39:30.084Z,74883.69
2023-03-21T14:42:03.839Z,74879.63
2023-03-21T14:44:44.065Z,74879.63
2023-03-21T14:47:21.229Z,74891.84
2023-03-21T14:49:50.630Z,74897.97
2023-03-21T14:52:24.428Z,74900.00
2023-03-21T14:54:53.935Z,74897.97
2023-03-21T14:57:26.164Z,74932.63
2023-03-21T14:59:57.128Z,74930.56
2023-03-21T15:02:27.682Z,74953.00
2023-03-21T15:04:58.355Z,74991.72
2023-03-21T15:07:32.232Z,74981.53
2023-03-21T15:10:03.912Z,74985.59
2023-03-21T15:12:32.025Z,74985.59
2023-03-21T15:15:01.404Z,74969.31
2023-03-21T15:17:29.835Z,74997.84
2023-03-21T15:19:57.664Z,75016.19
2023-03-21T15:22:32.326Z,75001.91
2023-03-21T15:25:03.462Z,75010.06
2023-03-21T15:27:35.996Z,75010.06
2023-03-21T15:30:04.099Z,75003.94
2023-03-21T15:32:32.042Z,75001.91
2023-03-21T15:35:08.134Z,74993.75
2023-03-21T15:37:38.823Z,74981.53
2023-03-21T15:40:17.408Z,74971.34
2023-03-21T15:42:45.344Z,74977.47
2023-03-21T15:45:21.669Z,75001.91
2023-03-21T15:47:55.636Z,75022.28
2023-03-21T15:50:29.460Z,75018.22
2023-03-21T15:53:01.745Z,75006.00
2023-03-21T15:55:35.433Z,75010.06
2023-03-21T15:58:07.272Z,75001.91
2023-03-21T16:00:40.341Z,75032.47
2023-03-21T16:03:16.935Z,75050.81
2023-03-21T16:06:03.237Z,75038.59
2023-03-21T16:08:35.828Z,75046.75
2023-03-21T16:11:08.828Z,75044.72
2023-03-21T16:13:37.212Z,75034.53
2023-03-21T16:16:05.384Z,75038.59
2023-03-21T16:18:33.140Z,75042.69
2023-03-21T16:21:01.161Z,75038.59
2023-03-21T16:23:28.891Z,75050.81
2023-03-21T16:25:58.964Z,75067.13
2023-03-21T16:28:26.784Z,75063.06
2023-03-21T16:30:54.553Z,75091.59
2023-03-21T16:33:22.369Z,75095.66
2023-03-21T16:35:51.965Z,75107.91
2023-03-21T16:38:19.764Z,75116.06
2023-03-21T16:40:47.524Z,75124.19
2023-03-21T16:43:16.687Z,75144.59
2023-03-21T16:45:44.469Z,75136.44
2023-03-21T16:48:16.520Z,75152.75
2023-03-21T16:50:47.747Z,75175.16
2023-03-21T16:53:17.900Z,75195.53
2023-03-21T16:55:46.112Z,75205.72
2023-03-21T16:58:16.991Z,75226.13
2023-03-21T17:00:44.747Z,75240.38
2023-03-21T17:03:19.106Z,75266.88
2023-03-21T17:05:47.188Z,75281.16
2023-03-21T17:08:17.578Z,75289.31
2023-03-21T17:10:46.499Z,75311.72
2023-03-21T17:13:15.800Z,75326.00
2023-03-21T17:15:44.284Z,75348.41
2023-03-21T17:18:13.184Z,75372.88
2023-03-21T17:20:41.859Z,75401.41
2023-03-21T17:23:10.310Z,75417.72
2023-03-21T17:25:38.188Z,75425.88
2023-03-21T17:28:06.069Z,75450.34
2023-03-21T17:30:39.179Z,75478.88
2023-03-21T17:33:07.398Z,75511.47
2023-03-21T17:35:35.345Z,75523.72
2023-03-21T17:38:03.214Z,75535.94
2023-03-21T17:40:32.617Z,75544.09
2023-03-21T17:43:01.825Z,75564.47
2023-03-21T17:45:29.723Z,75591.00
2023-03-21T17:47:58.960Z,75595.06
2023-03-21T17:50:28.319Z,75615.44
2023-03-21T17:52:57.330Z,75629.72
2023-03-21T17:55:25.221Z,75641.94
2023-03-21T17:57:53.359Z,75658.25
2023-03-21T18:00:23.786Z,75670.50
2023-03-21T18:02:52.142Z,75674.56
2023-03-21T18:05:22.957Z,75674.56
2023-03-21T18:08:11.057Z,75672.53
2023-03-21T18:10:40.109Z,75674.56
2023-03-21T18:13:08.146Z,75672.53
2023-03-21T18:15:37.937Z,75678.63
2023-03-21T18:18:06.651Z,75684.75
2023-03-21T18:20:51.114Z,75684.75
2023-03-21T18:23:19.901Z,75686.78
2023-03-21T18:25:47.855Z,75688.84
2023-03-21T18:28:19.510Z,75699.03
2023-03-21T18:33:37.376Z,75707.19
2023-03-21T18:36:08.089Z,75713.28
2023-03-21T18:38:36.580Z,75707.19
2023-03-21T18:41:04.680Z,75715.34
2023-03-21T18:46:20.592Z,75717.38
2023-03-21T18:48:49.240Z,75715.34
2023-03-21T18:51:19.318Z,75715.34
2023-03-21T18:53:47.130Z,75727.56
2023-03-21T18:56:57.652Z,75727.56
2023-03-21T18:59:03.579Z,75731.66
2023-03-21T19:01:32.457Z,75727.56
2023-03-21T19:04:19.965Z,75731.66
2023-03-21T19:06:50.250Z,75733.69
2023-03-21T19:09:18.704Z,75743.88
2023-03-21T19:11:47.212Z,75743.88
2023-03-21T19:14:17.376Z,75752.03
2023-03-21T19:17:23.182Z,75758.16
2023-03-21T19:19:33.848Z,75772.41
2023-03-21T19:22:03.001Z,75780.56
2023-03-21T19:24:31.259Z,75792.81
2023-03-21T19:26:59.262Z,75784.66
2023-03-21T19:29:27.080Z,75796.88
2023-03-21T19:31:54.943Z,75796.88
2023-03-21T19:34:22.824Z,75803.00
2023-03-21T19:36:52.356Z,75811.16
2023-03-21T19:39:24.006Z,75817.25
2023-03-21T19:41:55.481Z,75817.25
2023-03-21T19:44:29.400Z,75821.34
2023-03-21T19:46:57.207Z,75825.41
2023-03-21T19:49:37.053Z,75823.38
2023-03-21T19:52:13.883Z,75829.50
2023-03-21T19:54:43.245Z,75829.50
2023-03-21T19:57:11.316Z,75833.56
2023-03-21T19:59:39.144Z,75845.81
2023-03-21T20:02:33.212Z,75849.88
2023-03-21T20:04:55.411Z,75856.00
2023-03-21T20:07:23.200Z,75862.13
2023-03-21T20:09:54.773Z,75858.03
2023-03-21T20:12:23.833Z,75862.13
2023-03-21T20:14:58.044Z,75858.03
2023-03-21T20:17:33.386Z,75858.03
2023-03-21T20:20:01.546Z,75858.03
2023-03-21T20:22:58.840Z,75862.13
2023-03-21T20:25:18.694Z,75870.28
2023-03-21T20:27:46.437Z,75874.34
2023-03-21T20:30:17.274Z,75882.50
2023-03-21T20:32:47.033Z,75896.78
2023-03-21T20:35:29.556Z,75894.75
2023-03-21T20:38:05.962Z,75904.94
2023-03-21T20:40:35.303Z,75909.00
2023-03-21T20:43:33.403Z,75917.16
2023-03-21T20:46:00.423Z,75925.31
2023-03-21T20:48:29.758Z,75923.28
2023-03-21T20:51:01.966Z,75937.53
2023-03-21T20:53:30.112Z,75949.78
2023-03-21T20:56:02.302Z,75947.75
2023-03-21T20:58:59.052Z,75955.91
2023-03-21T21:01:19.539Z,75959.97
2023-03-21T21:03:49.472Z,75972.22
2023-03-21T21:06:19.878Z,75980.34
2023-03-21T21:08:48.250Z,75986.47
2023-03-21T21:12:03.060Z,75986.47
2023-03-21T21:14:07.270Z,75992.59
2023-03-21T21:16:35.051Z,75996.66
2023-03-21T21:19:02.833Z,76008.91
2023-03-21T21:21:31.664Z,76008.91
2023-03-21T21:23:59.920Z,76021.13
2023-03-21T21:26:29.261Z,76027.25
2023-03-21T21:28:58.687Z,76031.31
2023-03-21T21:31:27.263Z,76045.59
2023-03-21T21:33:55.409Z,76047.63
2023-03-21T21:36:23.550Z,76053.75
2023-03-21T21:38:52.995Z,76057.84
2023-03-21T21:41:23.959Z,76070.06
2023-03-21T21:43:53.155Z,76070.06
2023-03-21T21:46:20.937Z,76078.22
2023-03-21T21:48:49.880Z,76086.38
2023-03-21T21:51:18.118Z,76084.34
2023-03-21T21:53:46.360Z,76102.69
2023-03-21T21:56:14.204Z,76114.91
2023-03-21T21:58:46.976Z,76123.06
2023-03-21T22:01:17.465Z,76127.16
2023-03-21T22:03:46.054Z,76133.25
2023-03-21T22:06:13.927Z,76151.63
2023-03-21T22:08:46.796Z,76159.78
2023-03-21T22:11:15.942Z,76167.94
2023-03-21T22:13:46.770Z,76176.09
2023-03-21T22:16:16.019Z,76180.16
2023-03-21T22:18:43.914Z,76192.41
2023-03-21T22:21:11.756Z,76206.66
2023-03-21T22:23:41.338Z,76210.75
2023-03-21T22:26:09.454Z,76227.06
2023-03-21T22:28:40.157Z,76233.16
2023-03-21T22:31:10.829Z,76233.16
2023-03-21T22:33:40.033Z,76237.25
2023-03-21T22:36:08.677Z,76239.28
2023-03-21T22:38:37.038Z,76241.31
2023-03-21T22:41:06.575Z,76245.41
2023-03-21T22:43:35.267Z,76253.56
2023-03-21T22:46:04.108Z,76257.63
2023-03-21T22:48:32.345Z,76257.63
2023-03-21T22:51:01.816Z,76245.41
2023-03-21T22:53:30.225Z,76243.38
2023-03-21T22:55:58.146Z,76241.31
2023-03-21T22:58:26.051Z,76237.25
2023-03-21T23:00:53.885Z,76237.25
2023-03-21T23:03:21.623Z,76237.25
2023-03-21T23:05:49.401Z,76233.16
2023-03-21T23:08:18.527Z,76241.31
2023-03-21T23:10:47.622Z,76237.25
2023-03-21T23:13:15.378Z,76233.16
2023-03-21T23:15:43.243Z,76231.13
2023-03-21T23:18:11.142Z,76229.09
2023-03-21T23:20:39.145Z,76237.25
2023-03-21T23:23:07.103Z,76237.25
2023-03-21T23:25:38.629Z,76237.25
2023-03-21T23:28:08.211Z,76241.31
2023-03-21T23:30:38.698Z,76239.28
2023-03-21T23:33:06.609Z,76243.38
2023-03-21T23:35:35.859Z,76245.41
2023-03-21T23:38:03.749Z,76249.47
2023-03-21T23:40:31.733Z,76253.56
2023-03-21T23:43:00.860Z,76253.56
2023-03-21T23:45:28.646Z,76253.56
2023-03-21T23:47:56.403Z,76249.47
2023-03-21T23:50:24.321Z,76249.47
2023-03-21T23:52:52.046Z,76247.44
2023-03-21T23:55:19.875Z,76255.59
2023-03-21T23:57:48.120Z,76257.63
